sensor_id;sensor_type;location;lat;lon;timestamp;temperature;humidity
36586;DHT22;22591;48.314;11.562;2024-03-07T00:00:14;4.30;99.90
36586;DHT22;22591;48.314;11.562;2024-03-07T00:02:41;4.30;99.90
36586;DHT22;22591;48.314;11.562;2024-03-07T00:05:08;4.20;99.90
36586;DHT22;22591;48.314;11.562;2024-03-07T00:07:33;4.10;99.90
36586;DHT22;22591;48.314;11.562;2024-03-07T00:10:00;4.20;99.90
36586;DHT22;22591;48.314;11.562;2024-03-07T00:12:28;4.10;99.90
36586;DHT22;22591;48.314;11.562;2024-03-07T00:14:53;4.20;99.90
36586;DHT22;22591;48.314;11.562;2024-03-07T00:17:19;4.10;99.90
36586;DHT22;22591;48.314;11.562;2024-03-07T00:19:45;4.20;99.90
36586;DHT22;22591;48.314;11.562;2024-03-07T00:22:10;4.10;99.90
36586;DHT22;22591;48.314;11.562;2024-03-07T00:24:36;4.20;99.90
36586;DHT22;22591;48.314;11.562;2024-03-07T00:27:03;4.20;99.90
36586;DHT22;22591;48.314;11.562;2024-03-07T00:29:29;4.20;99.90
36586;DHT22;22591;48.314;11.562;2024-03-07T00:31:54;4.30;99.90
36586;DHT22;22591;48.314;11.562;2024-03-07T00:34:20;4.20;99.90
36586;DHT22;22591;48.314;11.562;2024-03-07T00:36:48;4.20;99.90
36586;DHT22;22591;48.314;11.562;2024-03-07T00:39:13;4.20;99.90
36586;DHT22;22591;48.314;11.562;2024-03-07T00:41:40;4.20;99.90
36586;DHT22;22591;48.314;11.562;2024-03-07T00:44:07;4.20;99.90
36586;DHT22;22591;48.314;11.562;2024-03-07T00:46:34;4.10;99.90
36586;DHT22;22591;48.314;11.562;2024-03-07T00:49:00;4.10;99.90
36586;DHT22;22591;48.314;11.562;2024-03-07T00:51:26;4.10;99.90
36586;DHT22;22591;48.314;11.562;2024-03-07T00:53:52;4.10;99.90
36586;DHT22;22591;48.314;11.562;2024-03-07T00:56:17;4.10;99.90
36586;DHT22;22591;48.314;11.562;2024-03-07T00:58:44;4.10;99.90
36586;DHT22;22591;48.314;11.562;2024-03-07T01:01:09;4.00;99.90
36586;DHT22;22591;48.314;11.562;2024-03-07T01:03:36;4.00;99.90
36586;DHT22;22591;48.314;11.562;2024-03-07T01:06:03;4.00;99.90
36586;DHT22;22591;48.314;11.562;2024-03-07T01:08:28;4.00;99.90
36586;DHT22;22591;48.314;11.562;2024-03-07T01:10:58;4.00;99.90
36586;DHT22;22591;48.314;11.562;2024-03-07T01:13:23;3.90;99.90
36586;DHT22;22591;48.314;11.562;2024-03-07T01:15:49;3.90;99.90
36586;DHT22;22591;48.314;11.562;2024-03-07T01:18:15;3.90;99.90
36586;DHT22;22591;48.314;11.562;2024-03-07T01:20:41;3.80;99.90
36586;DHT22;22591;48.314;11.562;2024-03-07T01:23:06;3.80;99.90
36586;DHT22;22591;48.314;11.562;2024-03-07T01:25:33;3.80;99.90
36586;DHT22;22591;48.314;11.562;2024-03-07T01:28:00;3.80;99.90
36586;DHT22;22591;48.314;11.562;2024-03-07T01:30:25;3.80;99.90
36586;DHT22;22591;48.314;11.562;2024-03-07T01:32:54;3.80;99.90
36586;DHT22;22591;48.314;11.562;2024-03-07T01:35:19;3.80;99.90
36586;DHT22;22591;48.314;11.562;2024-03-07T01:37:45;3.80;99.90
36586;DHT22;22591;48.314;11.562;2024-03-07T01:40:11;3.80;99.90
36586;DHT22;22591;48.314;11.562;2024-03-07T01:42:36;3.80;99.90
36586;DHT22;22591;48.314;11.562;2024-03-07T01:45:02;3.90;99.90
36586;DHT22;22591;48.314;11.562;2024-03-07T01:47:28;3.80;99.90
36586;DHT22;22591;48.314;11.562;2024-03-07T01:49:54;3.80;99.90
36586;DHT22;22591;48.314;11.562;2024-03-07T01:52:19;3.80;99.90
36586;DHT22;22591;48.314;11.562;2024-03-07T01:54:48;3.70;99.90
36586;DHT22;22591;48.314;11.562;2024-03-07T01:57:14;3.70;99.90
36586;DHT22;22591;48.314;11.562;2024-03-07T01:59:41;3.70;99.90
36586;DHT22;22591;48.314;11.562;2024-03-07T02:02:08;3.70;99.90
36586;DHT22;22591;48.314;11.562;2024-03-07T02:04:34;3.60;99.90
36586;DHT22;22591;48.314;11.562;2024-03-07T02:06:59;3.60;99.90
36586;DHT22;22591;48.314;11.562;2024-03-07T02:09:25;3.60;99.90
36586;DHT22;22591;48.314;11.562;2024-03-07T02:11:51;3.50;99.90
36586;DHT22;22591;48.314;11.562;2024-03-07T02:14:16;3.40;99.90
36586;DHT22;22591;48.314;11.562;2024-03-07T02:16:42;3.40;99.90
36586;DHT22;22591;48.314;11.562;2024-03-07T02:19:14;3.40;99.90
36586;DHT22;22591;48.314;11.562;2024-03-07T02:21:39;3.40;99.90
36586;DHT22;22591;48.314;11.562;2024-03-07T02:24:05;3.30;99.90
36586;DHT22;22591;48.314;11.562;2024-03-07T02:26:31;3.30;99.90
36586;DHT22;22591;48.314;11.562;2024-03-07T02:28:57;3.30;99.90
36586;DHT22;22591;48.314;11.562;2024-03-07T02:31:22;3.30;99.90
36586;DHT22;22591;48.314;11.562;2024-03-07T02:34:00;3.30;99.90
36586;DHT22;22591;48.314;11.562;2024-03-07T02:36:26;3.30;99.90
36586;DHT22;22591;48.314;11.562;2024-03-07T02:38:52;3.30;99.90
36586;DHT22;22591;48.314;11.562;2024-03-07T02:41:18;3.20;99.90
36586;DHT22;22591;48.314;11.562;2024-03-07T02:43:43;3.20;99.90
36586;DHT22;22591;48.314;11.562;2024-03-07T02:46:09;3.20;99.90
36586;DHT22;22591;48.314;11.562;2024-03-07T02:48:39;3.10;99.90
36586;DHT22;22591;48.314;11.562;2024-03-07T02:51:07;3.10;99.90
36586;DHT22;22591;48.314;11.562;2024-03-07T02:53:32;3.10;99.90
36586;DHT22;22591;48.314;11.562;2024-03-07T02:55:58;3.10;99.90
36586;DHT22;22591;48.314;11.562;2024-03-07T02:58:24;3.00;99.90
36586;DHT22;22591;48.314;11.562;2024-03-07T03:00:57;2.90;99.90
36586;DHT22;22591;48.314;11.562;2024-03-07T03:03:27;2.90;99.90
36586;DHT22;22591;48.314;11.562;2024-03-07T03:05:52;2.90;99.90
36586;DHT22;22591;48.314;11.562;2024-03-07T03:08:18;2.90;99.90
36586;DHT22;22591;48.314;11.562;2024-03-07T03:10:44;2.80;99.90
36586;DHT22;22591;48.314;11.562;2024-03-07T03:13:10;2.80;99.90
36586;DHT22;22591;48.314;11.562;2024-03-07T03:15:35;2.80;99.90
36586;DHT22;22591;48.314;11.562;2024-03-07T03:18:03;2.70;99.90
36586;DHT22;22591;48.314;11.562;2024-03-07T03:20:29;2.70;99.90
36586;DHT22;22591;48.314;11.562;2024-03-07T03:23:04;2.60;99.90
36586;DHT22;22591;48.314;11.562;2024-03-07T03:25:31;2.60;99.90
36586;DHT22;22591;48.314;11.562;2024-03-07T03:27:59;2.60;99.90
36586;DHT22;22591;48.314;11.562;2024-03-07T03:30:25;2.50;99.90
36586;DHT22;22591;48.314;11.562;2024-03-07T03:32:51;2.40;99.90
36586;DHT22;22591;48.314;11.562;2024-03-07T03:35:17;2.40;99.90
36586;DHT22;22591;48.314;11.562;2024-03-07T03:37:43;2.30;99.90
36586;DHT22;22591;48.314;11.562;2024-03-07T03:40:10;2.30;99.90
36586;DHT22;22591;48.314;11.562;2024-03-07T03:42:40;2.20;99.90
36586;DHT22;22591;48.314;11.562;2024-03-07T03:45:07;2.20;99.90
36586;DHT22;22591;48.314;11.562;2024-03-07T03:47:36;2.10;99.90
36586;DHT22;22591;48.314;11.562;2024-03-07T03:50:04;2.10;99.90
36586;DHT22;22591;48.314;11.562;2024-03-07T03:52:29;2.00;99.90
36586;DHT22;22591;48.314;11.562;2024-03-07T03:54:56;2.00;99.90
36586;DHT22;22591;48.314;11.562;2024-03-07T03:57:22;2.00;99.90
36586;DHT22;22591;48.314;11.562;2024-03-07T03:59:48;1.90;99.90
36586;DHT22;22591;48.314;11.562;2024-03-07T04:02:13;2.00;99.90
36586;DHT22;22591;48.314;11.562;2024-03-07T04:04:39;1.90;99.90
36586;DHT22;22591;48.314;11.562;2024-03-07T04:07:05;1.90;99.90
36586;DHT22;22591;48.314;11.562;2024-03-07T04:09:31;1.90;99.90
36586;DHT22;22591;48.314;11.562;2024-03-07T04:11:57;1.80;99.90
36586;DHT22;22591;48.314;11.562;2024-03-07T04:14:23;2.00;99.90
36586;DHT22;22591;48.314;11.562;2024-03-07T04:16:49;1.80;99.90
36586;DHT22;22591;48.314;11.562;2024-03-07T04:19:15;1.80;99.90
36586;DHT22;22591;48.314;11.562;2024-03-07T04:21:40;1.90;99.90
36586;DHT22;22591;48.314;11.562;2024-03-07T04:24:07;1.90;99.90
36586;DHT22;22591;48.314;11.562;2024-03-07T04:26:32;1.80;99.90
36586;DHT22;22591;48.314;11.562;2024-03-07T04:28:58;1.80;99.90
36586;DHT22;22591;48.314;11.562;2024-03-07T04:31:23;1.80;99.90
36586;DHT22;22591;48.314;11.562;2024-03-07T04:33:49;1.80;99.90
36586;DHT22;22591;48.314;11.562;2024-03-07T04:36:16;1.80;99.90
36586;DHT22;22591;48.314;11.562;2024-03-07T04:38:42;1.80;99.90
36586;DHT22;22591;48.314;11.562;2024-03-07T04:41:11;1.80;99.90
36586;DHT22;22591;48.314;11.562;2024-03-07T04:43:37;1.80;99.90
36586;DHT22;22591;48.314;11.562;2024-03-07T04:46:02;1.80;99.90
36586;DHT22;22591;48.314;11.562;2024-03-07T04:48:28;1.80;99.90
36586;DHT22;22591;48.314;11.562;2024-03-07T04:50:53;1.70;99.90
36586;DHT22;22591;48.314;11.562;2024-03-07T04:53:19;1.80;99.90
36586;DHT22;22591;48.314;11.562;2024-03-07T04:55:45;1.70;99.90
36586;DHT22;22591;48.314;11.562;2024-03-07T04:58:10;1.70;99.90
36586;DHT22;22591;48.314;11.562;2024-03-07T05:00:36;1.70;99.90
36586;DHT22;22591;48.314;11.562;2024-03-07T05:03:01;1.80;99.90
36586;DHT22;22591;48.314;11.562;2024-03-07T05:05:27;1.70;99.90
36586;DHT22;22591;48.314;11.562;2024-03-07T05:07:53;1.70;99.90
36586;DHT22;22591;48.314;11.562;2024-03-07T05:10:21;1.70;99.90
36586;DHT22;22591;48.314;11.562;2024-03-07T05:12:46;1.70;99.90
36586;DHT22;22591;48.314;11.562;2024-03-07T05:15:12;1.70;99.90
36586;DHT22;22591;48.314;11.562;2024-03-07T05:17:37;1.70;99.90
36586;DHT22;22591;48.314;11.562;2024-03-07T05:20:05;1.70;99.90
36586;DHT22;22591;48.314;11.562;2024-03-07T05:22:41;1.70;99.90
36586;DHT22;22591;48.314;11.562;2024-03-07T05:25:12;1.60;99.90
36586;DHT22;22591;48.314;11.562;2024-03-07T05:27:38;1.60;99.90
36586;DHT22;22591;48.314;11.562;2024-03-07T05:30:05;1.60;99.90
36586;DHT22;22591;48.314;11.562;2024-03-07T05:32:31;1.60;99.90
36586;DHT22;22591;48.314;11.562;2024-03-07T05:34:59;1.60;99.90
36586;DHT22;22591;48.314;11.562;2024-03-07T05:37:25;1.60;99.90
36586;DHT22;22591;48.314;11.562;2024-03-07T05:39:51;1.50;99.90
36586;DHT22;22591;48.314;11.562;2024-03-07T05:42:16;1.50;99.90
36586;DHT22;22591;48.314;11.562;2024-03-07T05:44:42;1.60;99.90
36586;DHT22;22591;48.314;11.562;2024-03-07T05:47:09;1.70;99.90
36586;DHT22;22591;48.314;11.562;2024-03-07T05:49:35;1.60;99.90
36586;DHT22;22591;48.314;11.562;2024-03-07T05:52:04;1.60;99.90
36586;DHT22;22591;48.314;11.562;2024-03-07T05:54:31;1.60;99.90
36586;DHT22;22591;48.314;11.562;2024-03-07T05:56:57;1.60;99.90
36586;DHT22;22591;48.314;11.562;2024-03-07T05:59:23;1.60;99.90
36586;DHT22;22591;48.314;11.562;2024-03-07T06:01:49;1.60;99.90
36586;DHT22;22591;48.314;11.562;2024-03-07T06:04:16;1.70;99.90
36586;DHT22;22591;48.314;11.562;2024-03-07T06:06:42;1.70;99.90
36586;DHT22;22591;48.314;11.562;2024-03-07T06:09:09;1.60;99.90
36586;DHT22;22591;48.314;11.562;2024-03-07T06:11:38;1.60;99.90
36586;DHT22;22591;48.314;11.562;2024-03-07T06:14:05;1.70;99.90
36586;DHT22;22591;48.314;11.562;2024-03-07T06:16:40;1.70;99.90
36586;DHT22;22591;48.314;11.562;2024-03-07T06:19:08;1.70;99.90
36586;DHT22;22591;48.314;11.562;2024-03-07T06:21:38;1.70;99.90
36586;DHT22;22591;48.314;11.562;2024-03-07T06:24:05;1.70;99.90
36586;DHT22;22591;48.314;11.562;2024-03-07T06:26:33;1.80;99.90
36586;DHT22;22591;48.314;11.562;2024-03-07T06:29:06;1.70;99.90
36586;DHT22;22591;48.314;11.562;2024-03-07T06:31:32;1.60;99.90
36586;DHT22;22591;48.314;11.562;2024-03-07T06:33:58;1.60;99.90
36586;DHT22;22591;48.314;11.562;2024-03-07T06:36:23;1.70;99.90
36586;DHT22;22591;48.314;11.562;2024-03-07T06:38:50;1.60;99.90
36586;DHT22;22591;48.314;11.562;2024-03-07T06:41:16;1.70;99.90
36586;DHT22;22591;48.314;11.562;2024-03-07T06:43:43;1.60;99.90
36586;DHT22;22591;48.314;11.562;2024-03-07T06:46:10;1.80;99.90
36586;DHT22;22591;48.314;11.562;2024-03-07T06:48:35;1.70;99.90
36586;DHT22;22591;48.314;11.562;2024-03-07T06:51:01;1.70;99.90
36586;DHT22;22591;48.314;11.562;2024-03-07T06:53:27;1.70;99.90
36586;DHT22;22591;48.314;11.562;2024-03-07T06:55:54;1.80;99.90
36586;DHT22;22591;48.314;11.562;2024-03-07T06:58:20;1.80;99.90
36586;DHT22;22591;48.314;11.562;2024-03-07T07:00:46;1.90;99.90
36586;DHT22;22591;48.314;11.562;2024-03-07T07:03:12;1.90;99.90
36586;DHT22;22591;48.314;11.562;2024-03-07T07:05:40;1.90;99.90
36586;DHT22;22591;48.314;11.562;2024-03-07T07:08:10;1.90;99.90
36586;DHT22;22591;48.314;11.562;2024-03-07T07:10:36;2.00;99.90
36586;DHT22;22591;48.314;11.562;2024-03-07T07:13:02;1.90;99.90
36586;DHT22;22591;48.314;11.562;2024-03-07T07:15:30;1.80;99.90
36586;DHT22;22591;48.314;11.562;2024-03-07T07:17:55;2.00;99.90
36586;DHT22;22591;48.314;11.562;2024-03-07T07:20:21;2.00;99.90
36586;DHT22;22591;48.314;11.562;2024-03-07T07:22:49;2.10;99.90
36586;DHT22;22591;48.314;11.562;2024-03-07T07:25:16;2.10;99.90
36586;DHT22;22591;48.314;11.562;2024-03-07T07:27:47;2.30;99.90
36586;DHT22;22591;48.314;11.562;2024-03-07T07:30:15;2.30;99.90
36586;DHT22;22591;48.314;11.562;2024-03-07T07:32:41;2.20;99.90
36586;DHT22;22591;48.314;11.562;2024-03-07T07:35:09;2.20;99.90
36586;DHT22;22591;48.314;11.562;2024-03-07T07:37:44;2.20;99.90
36586;DHT22;22591;48.314;11.562;2024-03-07T07:40:14;2.30;99.90
36586;DHT22;22591;48.314;11.562;2024-03-07T07:42:44;2.20;99.90
36586;DHT22;22591;48.314;11.562;2024-03-07T07:45:10;2.20;99.90
36586;DHT22;22591;48.314;11.562;2024-03-07T07:48:09;2.20;99.90
36586;DHT22;22591;48.314;11.562;2024-03-07T07:50:28;2.10;99.90
36586;DHT22;22591;48.314;11.562;2024-03-07T07:52:58;2.40;99.90
36586;DHT22;22591;48.314;11.562;2024-03-07T07:55:28;2.50;99.90
36586;DHT22;22591;48.314;11.562;2024-03-07T07:57:58;2.60;99.90
36586;DHT22;22591;48.314;11.562;2024-03-07T08:00:26;2.40;99.90
36586;DHT22;22591;48.314;11.562;2024-03-07T08:05:24;2.40;99.90
36586;DHT22;22591;48.314;11.562;2024-03-07T08:07:51;2.50;99.90
36586;DHT22;22591;48.314;11.562;2024-03-07T08:10:18;2.50;99.90
36586;DHT22;22591;48.314;11.562;2024-03-07T08:12:44;2.60;99.90
36586;DHT22;22591;48.314;11.562;2024-03-07T08:15:14;2.50;99.90
36586;DHT22;22591;48.314;11.562;2024-03-07T08:17:41;2.70;99.90
36586;DHT22;22591;48.314;11.562;2024-03-07T08:20:09;2.70;99.90
36586;DHT22;22591;48.314;11.562;2024-03-07T08:22:40;2.70;99.90
36586;DHT22;22591;48.314;11.562;2024-03-07T08:25:07;2.80;99.90
36586;DHT22;22591;48.314;11.562;2024-03-07T08:27:35;2.80;99.90
36586;DHT22;22591;48.314;11.562;2024-03-07T08:30:02;2.90;99.90
36586;DHT22;22591;48.314;11.562;2024-03-07T08:32:28;2.90;99.90
36586;DHT22;22591;48.314;11.562;2024-03-07T08:34:53;3.00;99.90
36586;DHT22;22591;48.314;11.562;2024-03-07T08:37:20;3.20;99.90
36586;DHT22;22591;48.314;11.562;2024-03-07T08:39:46;3.30;99.90
36586;DHT22;22591;48.314;11.562;2024-03-07T08:42:12;3.50;99.90
36586;DHT22;22591;48.314;11.562;2024-03-07T08:44:38;3.60;99.90
36586;DHT22;22591;48.314;11.562;2024-03-07T08:47:03;3.40;99.90
36586;DHT22;22591;48.314;11.562;2024-03-07T08:49:29;3.60;99.90
36586;DHT22;22591;48.314;11.562;2024-03-07T08:51:54;3.80;99.90
36586;DHT22;22591;48.314;11.562;2024-03-07T08:54:20;3.70;99.90
36586;DHT22;22591;48.314;11.562;2024-03-07T08:56:45;3.70;99.90
36586;DHT22;22591;48.314;11.562;2024-03-07T08:59:11;3.70;99.90
36586;DHT22;22591;48.314;11.562;2024-03-07T09:01:41;4.00;99.90
36586;DHT22;22591;48.314;11.562;2024-03-07T09:04:09;4.10;99.90
36586;DHT22;22591;48.314;11.562;2024-03-07T09:06:34;4.20;99.90
36586;DHT22;22591;48.314;11.562;2024-03-07T09:09:00;4.40;99.90
36586;DHT22;22591;48.314;11.562;2024-03-07T09:11:25;4.60;99.90
36586;DHT22;22591;48.314;11.562;2024-03-07T09:13:51;4.50;99.90
36586;DHT22;22591;48.314;11.562;2024-03-07T09:16:16;4.50;99.90
36586;DHT22;22591;48.314;11.562;2024-03-07T09:18:42;4.20;99.90
36586;DHT22;22591;48.314;11.562;2024-03-07T09:21:08;4.30;99.90
36586;DHT22;22591;48.314;11.562;2024-03-07T09:23:34;4.40;99.90
36586;DHT22;22591;48.314;11.562;2024-03-07T09:26:00;4.40;99.90
36586;DHT22;22591;48.314;11.562;2024-03-07T09:28:28;4.50;99.90
36586;DHT22;22591;48.314;11.562;2024-03-07T09:30:53;4.40;99.90
36586;DHT22;22591;48.314;11.562;2024-03-07T09:33:20;4.50;99.90
36586;DHT22;22591;48.314;11.562;2024-03-07T09:35:46;4.60;99.90
36586;DHT22;22591;48.314;11.562;2024-03-07T09:38:13;4.80;99.90
36586;DHT22;22591;48.314;11.562;2024-03-07T09:40:40;4.80;99.90
36586;DHT22;22591;48.314;11.562;2024-03-07T09:43:06;5.10;99.90
36586;DHT22;22591;48.314;11.562;2024-03-07T09:45:35;5.20;99.90
36586;DHT22;22591;48.314;11.562;2024-03-07T09:48:01;5.20;99.90
36586;DHT22;22591;48.314;11.562;2024-03-07T09:50:30;5.40;99.90
36586;DHT22;22591;48.314;11.562;2024-03-07T09:52:56;5.40;99.90
36586;DHT22;22591;48.314;11.562;2024-03-07T09:55:23;5.50;99.90
36586;DHT22;22591;48.314;11.562;2024-03-07T09:57:52;5.50;99.90
36586;DHT22;22591;48.314;11.562;2024-03-07T10:00:19;5.80;99.90
36586;DHT22;22591;48.314;11.562;2024-03-07T10:03:00;5.80;99.90
36586;DHT22;22591;48.314;11.562;2024-03-07T10:05:27;5.80;99.90
36586;DHT22;22591;48.314;11.562;2024-03-07T10:07:53;5.60;99.90
36586;DHT22;22591;48.314;11.562;2024-03-07T10:10:19;5.50;99.90
36586;DHT22;22591;48.314;11.562;2024-03-07T10:12:45;5.40;99.90
36586;DHT22;22591;48.314;11.562;2024-03-07T10:15:11;5.80;99.90
36586;DHT22;22591;48.314;11.562;2024-03-07T10:17:41;6.00;99.90
36586;DHT22;22591;48.314;11.562;2024-03-07T10:20:08;6.20;99.90
36586;DHT22;22591;48.314;11.562;2024-03-07T10:22:41;5.80;99.90
36586;DHT22;22591;48.314;11.562;2024-03-07T10:25:07;5.50;99.90
36586;DHT22;22591;48.314;11.562;2024-03-07T10:27:36;5.40;99.90
36586;DHT22;22591;48.314;11.562;2024-03-07T10:30:02;5.20;99.90
36586;DHT22;22591;48.314;11.562;2024-03-07T10:32:30;5.40;99.90
36586;DHT22;22591;48.314;11.562;2024-03-07T10:34:55;5.70;99.90
36586;DHT22;22591;48.314;11.562;2024-03-07T10:37:22;5.90;99.90
36586;DHT22;22591;48.314;11.562;2024-03-07T10:39:48;6.20;99.90
36586;DHT22;22591;48.314;11.562;2024-03-07T10:42:17;6.30;99.90
36586;DHT22;22591;48.314;11.562;2024-03-07T10:44:48;6.00;99.90
36586;DHT22;22591;48.314;11.562;2024-03-07T10:47:18;6.10;99.90
36586;DHT22;22591;48.314;11.562;2024-03-07T10:49:59;6.30;99.90
36586;DHT22;22591;48.314;11.562;2024-03-07T10:52:38;6.10;99.90
36586;DHT22;22591;48.314;11.562;2024-03-07T10:55:16;6.10;99.90
36586;DHT22;22591;48.314;11.562;2024-03-07T10:57:50;5.90;99.90
36586;DHT22;22591;48.314;11.562;2024-03-07T11:00:21;6.10;99.90
36586;DHT22;22591;48.314;11.562;2024-03-07T11:03:01;6.40;99.90
36586;DHT22;22591;48.314;11.562;2024-03-07T11:05:33;6.40;99.90
36586;DHT22;22591;48.314;11.562;2024-03-07T11:08:00;6.60;99.90
36586;DHT22;22591;48.314;11.562;2024-03-07T11:10:45;6.50;99.90
36586;DHT22;22591;48.314;11.562;2024-03-07T11:13:13;6.40;99.90
36586;DHT22;22591;48.314;11.562;2024-03-07T11:15:44;6.20;99.90
36586;DHT22;22591;48.314;11.562;2024-03-07T11:18:11;6.30;99.90
36586;DHT22;22591;48.314;11.562;2024-03-07T11:20:40;6.50;99.90
36586;DHT22;22591;48.314;11.562;2024-03-07T11:23:31;6.40;99.90
36586;DHT22;22591;48.314;11.562;2024-03-07T11:26:07;6.20;99.90
36586;DHT22;22591;48.314;11.562;2024-03-07T11:28:34;6.40;99.90
36586;DHT22;22591;48.314;11.562;2024-03-07T11:31:15;6.50;99.90
36586;DHT22;22591;48.314;11.562;2024-03-07T11:34:15;6.50;99.90
36586;DHT22;22591;48.314;11.562;2024-03-07T11:36:45;6.30;99.90
36586;DHT22;22591;48.314;11.562;2024-03-07T11:39:42;6.30;99.90
36586;DHT22;22591;48.314;11.562;2024-03-07T11:42:29;6.30;99.90
36586;DHT22;22591;48.314;11.562;2024-03-07T11:44:57;6.40;99.90
36586;DHT22;22591;48.314;11.562;2024-03-07T11:47:23;6.40;99.90
36586;DHT22;22591;48.314;11.562;2024-03-07T11:49:50;6.40;99.90
36586;DHT22;22591;48.314;11.562;2024-03-07T11:52:18;6.30;99.90
36586;DHT22;22591;48.314;11.562;2024-03-07T11:54:44;6.20;99.90
36586;DHT22;22591;48.314;11.562;2024-03-07T11:57:16;6.20;99.90
36586;DHT22;22591;48.314;11.562;2024-03-07T11:59:45;6.10;99.90
36586;DHT22;22591;48.314;11.562;2024-03-07T12:02:14;6.20;99.90
36586;DHT22;22591;48.314;11.562;2024-03-07T12:04:41;6.40;99.90
36586;DHT22;22591;48.314;11.562;2024-03-07T12:07:07;6.50;99.90
36586;DHT22;22591;48.314;11.562;2024-03-07T12:09:38;6.50;99.90
36586;DHT22;22591;48.314;11.562;2024-03-07T12:12:07;6.60;99.90
36586;DHT22;22591;48.314;11.562;2024-03-07T12:14:34;6.60;99.90
36586;DHT22;22591;48.314;11.562;2024-03-07T12:17:03;6.50;99.90
36586;DHT22;22591;48.314;11.562;2024-03-07T12:19:33;6.50;99.90
36586;DHT22;22591;48.314;11.562;2024-03-07T12:22:02;6.80;99.90
36586;DHT22;22591;48.314;11.562;2024-03-07T12:24:28;7.00;99.90
36586;DHT22;22591;48.314;11.562;2024-03-07T12:27:11;7.30;99.90
36586;DHT22;22591;48.314;11.562;2024-03-07T12:29:38;7.30;99.90
36586;DHT22;22591;48.314;11.562;2024-03-07T12:32:07;7.50;99.90
36586;DHT22;22591;48.314;11.562;2024-03-07T12:34:34;7.30;99.90
36586;DHT22;22591;48.314;11.562;2024-03-07T12:37:03;7.30;99.90
36586;DHT22;22591;48.314;11.562;2024-03-07T12:39:32;7.30;99.90
36586;DHT22;22591;48.314;11.562;2024-03-07T12:42:02;7.30;99.90
36586;DHT22;22591;48.314;11.562;2024-03-07T12:44:38;7.10;99.90
36586;DHT22;22591;48.314;11.562;2024-03-07T12:47:04;6.90;99.90
36586;DHT22;22591;48.314;11.562;2024-03-07T12:49:35;6.90;99.90
36586;DHT22;22591;48.314;11.562;2024-03-07T12:52:02;6.90;99.90
36586;DHT22;22591;48.314;11.562;2024-03-07T12:54:28;6.70;99.90
36586;DHT22;22591;48.314;11.562;2024-03-07T12:56:54;6.60;99.90
36586;DHT22;22591;48.314;11.562;2024-03-07T12:59:20;6.70;99.90
36586;DHT22;22591;48.314;11.562;2024-03-07T13:01:49;6.90;99.90
36586;DHT22;22591;48.314;11.562;2024-03-07T13:04:16;7.00;99.90
36586;DHT22;22591;48.314;11.562;2024-03-07T13:06:42;6.80;99.90
36586;DHT22;22591;48.314;11.562;2024-03-07T13:09:12;7.10;99.90
36586;DHT22;22591;48.314;11.562;2024-03-07T13:11:39;7.10;99.90
36586;DHT22;22591;48.314;11.562;2024-03-07T13:14:13;7.30;99.90
36586;DHT22;22591;48.314;11.562;2024-03-07T13:16:39;7.20;99.90
36586;DHT22;22591;48.314;11.562;2024-03-07T13:19:06;7.10;99.90
36586;DHT22;22591;48.314;11.562;2024-03-07T13:21:31;7.50;99.90
36586;DHT22;22591;48.314;11.562;2024-03-07T13:23:58;7.60;99.90
36586;DHT22;22591;48.314;11.562;2024-03-07T13:26:24;7.70;99.90
36586;DHT22;22591;48.314;11.562;2024-03-07T13:28:53;7.80;99.90
36586;DHT22;22591;48.314;11.562;2024-03-07T13:31:19;8.00;99.90
36586;DHT22;22591;48.314;11.562;2024-03-07T13:33:45;8.10;99.90
36586;DHT22;22591;48.314;11.562;2024-03-07T13:36:11;7.40;99.90
36586;DHT22;22591;48.314;11.562;2024-03-07T13:38:39;7.30;99.90
36586;DHT22;22591;48.314;11.562;2024-03-07T13:41:05;7.40;99.90
36586;DHT22;22591;48.314;11.562;2024-03-07T13:43:31;7.40;99.90
36586;DHT22;22591;48.314;11.562;2024-03-07T13:46:00;7.20;99.90
36586;DHT22;22591;48.314;11.562;2024-03-07T13:48:26;7.10;99.90
36586;DHT22;22591;48.314;11.562;2024-03-07T13:50:52;7.10;99.90
36586;DHT22;22591;48.314;11.562;2024-03-07T13:53:20;7.00;99.90
36586;DHT22;22591;48.314;11.562;2024-03-07T13:56:12;7.10;99.90
36586;DHT22;22591;48.314;11.562;2024-03-07T14:01:58;7.00;99.90
36586;DHT22;22591;48.314;11.562;2024-03-07T14:22:32;6.70;99.90
36586;DHT22;22591;48.314;11.562;2024-03-07T14:30:53;6.60;99.90
36586;DHT22;22591;48.314;11.562;2024-03-07T14:33:32;6.50;99.90
36586;DHT22;22591;48.314;11.562;2024-03-07T14:36:03;6.50;99.90
36586;DHT22;22591;48.314;11.562;2024-03-07T14:38:47;6.40;99.90
36586;DHT22;22591;48.314;11.562;2024-03-07T14:41:15;6.30;99.90
36586;DHT22;22591;48.314;11.562;2024-03-07T14:43:43;6.50;99.90
36586;DHT22;22591;48.314;11.562;2024-03-07T14:46:13;6.40;99.90
36586;DHT22;22591;48.314;11.562;2024-03-07T14:48:40;6.40;99.90
36586;DHT22;22591;48.314;11.562;2024-03-07T14:51:11;6.50;99.90
36586;DHT22;22591;48.314;11.562;2024-03-07T14:53:39;6.50;99.90
36586;DHT22;22591;48.314;11.562;2024-03-07T14:56:07;6.50;99.90
36586;DHT22;22591;48.314;11.562;2024-03-07T14:58:32;6.50;99.90
36586;DHT22;22591;48.314;11.562;2024-03-07T15:00:58;6.50;99.90
36586;DHT22;22591;48.314;11.562;2024-03-07T15:03:24;6.50;99.90
36586;DHT22;22591;48.314;11.562;2024-03-07T15:05:54;6.60;99.90
36586;DHT22;22591;48.314;11.562;2024-03-07T15:08:20;6.70;99.90
36586;DHT22;22591;48.314;11.562;2024-03-07T15:10:54;6.50;99.90
36586;DHT22;22591;48.314;11.562;2024-03-07T15:13:21;6.50;99.90
36586;DHT22;22591;48.314;11.562;2024-03-07T15:15:48;6.50;99.90
36586;DHT22;22591;48.314;11.562;2024-03-07T15:18:13;6.60;99.90
36586;DHT22;22591;48.314;11.562;2024-03-07T15:20:39;6.70;99.90
36586;DHT22;22591;48.314;11.562;2024-03-07T15:23:07;6.70;99.90
36586;DHT22;22591;48.314;11.562;2024-03-07T15:25:32;6.60;99.90
36586;DHT22;22591;48.314;11.562;2024-03-07T15:27:59;6.60;99.90
36586;DHT22;22591;48.314;11.562;2024-03-07T15:30:26;6.70;99.90
36586;DHT22;22591;48.314;11.562;2024-03-07T15:33:01;6.60;99.90
36586;DHT22;22591;48.314;11.562;2024-03-07T15:35:27;6.50;99.90
36586;DHT22;22591;48.314;11.562;2024-03-07T15:37:53;6.50;99.90
36586;DHT22;22591;48.314;11.562;2024-03-07T15:40:20;6.50;99.90
36586;DHT22;22591;48.314;11.562;2024-03-07T15:42:56;6.50;99.90
36586;DHT22;22591;48.314;11.562;2024-03-07T15:45:23;6.50;99.90
36586;DHT22;22591;48.314;11.562;2024-03-07T15:47:57;6.50;99.90
36586;DHT22;22591;48.314;11.562;2024-03-07T15:50:24;6.50;99.90
36586;DHT22;22591;48.314;11.562;2024-03-07T15:52:55;6.50;99.90
36586;DHT22;22591;48.314;11.562;2024-03-07T15:55:23;6.50;99.90
36586;DHT22;22591;48.314;11.562;2024-03-07T15:57:54;6.50;99.90
36586;DHT22;22591;48.314;11.562;2024-03-07T16:00:22;6.50;99.90
36586;DHT22;22591;48.314;11.562;2024-03-07T16:02:59;6.40;99.90